createdAt,value
2023-02-07T00:01:43.850Z,85.48
2023-02-07T00:04:14.013Z,85.93
2023-02-07T00:06:41.789Z,85.45
2023-02-07T00:09:12.115Z,85.16
2023-02-07T00:11:41.225Z,85.57
2023-02-07T00:14:11.609Z,85.26
2023-02-07T00:16:40.633Z,85.71
2023-02-07T00:19:09.023Z,86.22
2023-02-07T00:21:42.283Z,86.68
2023-02-07T00:24:09.934Z,86.53
2023-02-07T00:26:37.573Z,86.60
2023-02-07T00:29:05.573Z,86.72
2023-02-07T00:31:36.575Z,86.65
2023-02-07T00:34:09.074Z,86.34
2023-02-07T00:36:38.372Z,86.51
2023-02-07T00:39:09.516Z,87.00
2023-02-07T00:41:37.167Z,86.55
2023-02-07T00:44:07.626Z,87.18
2023-02-07T00:46:36.594Z,86.73
2023-02-07T00:49:05.152Z,87.33
2023-02-07T00:51:33.517Z,87.52
2023-02-07T00:54:01.770Z,87.02
2023-02-07T00:56:31.360Z,87.25
2023-02-07T00:59:07.561Z,87.86
2023-02-07T01:01:35.394Z,88.03
2023-02-07T01:04:06.108Z,88.01
2023-02-07T01:06:36.960Z,87.82
2023-02-07T01:09:06.804Z,88.08
2023-02-07T01:11:34.880Z,88.24
2023-02-07T01:14:02.982Z,88.49
2023-02-07T01:16:36.489Z,88.23
2023-02-07T01:19:11.701Z,88.09
2023-02-07T01:21:40.761Z,88.50
2023-02-07T01:24:09.334Z,88.77
2023-02-07T01:26:40.527Z,88.48
2023-02-07T01:29:10.517Z,88.42
2023-02-07T01:31:38.349Z,88.17
2023-02-07T01:34:08.419Z,88.66
2023-02-07T01:36:39.661Z,88.39
2023-02-07T01:39:07.362Z,88.56
2023-02-07T01:41:35.191Z,88.65
2023-02-07T01:44:33.300Z,89.15
2023-02-07T01:47:03.644Z,89.35
2023-02-07T01:49:35.477Z,89.24
2023-02-07T01:52:16.853Z,88.59
2023-02-07T01:54:48.959Z,89.07
2023-02-07T01:57:20.655Z,88.96
2023-02-07T01:59:53.111Z,89.07
2023-02-07T02:02:23.158Z,89.12
2023-02-07T02:04:55.658Z,89.31
2023-02-07T02:07:24.304Z,89.18
2023-02-07T02:09:53.861Z,89.29
2023-02-07T02:12:48.806Z,89.28
2023-02-07T02:15:31.899Z,89.09
2023-02-07T02:18:24.227Z,89.47
2023-02-07T02:21:23.140Z,89.44
2023-02-07T02:24:02.621Z,89.95
2023-02-07T02:26:48.627Z,89.77
2023-02-07T02:29:58.105Z,90.21
2023-02-07T02:32:44.669Z,90.01
2023-02-07T02:35:35.124Z,89.83
2023-02-07T02:38:22.942Z,89.98
2023-02-07T02:40:58.388Z,89.89
2023-02-07T02:43:36.112Z,89.94
2023-02-07T02:46:18.062Z,89.95
2023-02-07T02:48:46.650Z,90.07
2023-02-07T02:51:14.374Z,90.49
2023-02-07T02:53:51.839Z,90.27
2023-02-07T02:56:30.100Z,90.47
2023-02-07T02:59:03.878Z,90.93
2023-02-07T03:01:37.578Z,90.75
2023-02-07T03:04:15.392Z,91.02
2023-02-07T03:07:12.006Z,91.20
2023-02-07T03:09:58.552Z,91.30
2023-02-07T03:12:29.261Z,90.73
2023-02-07T03:15:18.404Z,91.32
2023-02-07T03:17:55.267Z,91.17
2023-02-07T03:20:38.565Z,90.93
2023-02-07T03:23:08.897Z,91.42
2023-02-07T03:25:38.195Z,91.08
2023-02-07T03:28:06.079Z,91.41
2023-02-07T03:30:35.910Z,91.01
2023-02-07T03:33:11.848Z,91.38
2023-02-07T03:35:55.115Z,91.56
2023-02-07T03:38:23.316Z,91.60
2023-02-07T03:40:57.988Z,91.82
2023-02-07T03:43:29.955Z,91.46
2023-02-07T03:46:00.343Z,91.50
2023-02-07T03:48:28.039Z,91.41
2023-02-07T03:50:55.801Z,91.09
2023-02-07T03:53:23.387Z,91.58
2023-02-07T03:55:51.803Z,91.91
2023-02-07T03:58:19.431Z,91.87
2023-02-07T04:00:47.236Z,92.03
2023-02-07T04:03:20.267Z,91.73
2023-02-07T04:05:49.867Z,92.20
2023-02-07T04:08:17.520Z,92.32
2023-02-07T04:10:45.224Z,92.50
2023-02-07T04:13:12.857Z,92.52
2023-02-07T04:15:40.748Z,92.29
2023-02-07T04:18:08.460Z,92.22
2023-02-07T04:20:36.079Z,92.21
2023-02-07T04:23:03.683Z,92.30
2023-02-07T04:25:31.387Z,92.14
2023-02-07T04:27:59.113Z,91.98
2023-02-07T04:30:27.866Z,91.88
2023-02-07T04:32:55.592Z,91.92
2023-02-07T04:35:23.354Z,92.12
2023-02-07T04:37:58.095Z,92.34
2023-02-07T04:40:27.956Z,92.42
2023-02-07T04:42:55.620Z,92.35
2023-02-07T04:45:23.621Z,92.47
2023-02-07T04:47:51.425Z,92.29
2023-02-07T04:50:19.173Z,92.53
2023-02-07T04:52:46.831Z,92.42
2023-02-07T04:55:14.493Z,92.39
2023-02-07T04:57:45.674Z,92.25
2023-02-07T05:00:14.182Z,92.55
2023-02-07T05:02:42.187Z,92.12
2023-02-07T05:05:10.865Z,91.77
2023-02-07T05:07:38.539Z,91.72
2023-02-07T05:10:10.535Z,91.83
2023-02-07T05:12:38.133Z,92.08
2023-02-07T05:15:09.839Z,91.89
2023-02-07T05:17:38.859Z,91.83
2023-02-07T05:20:08.765Z,92.03
2023-02-07T05:22:36.437Z,91.80
2023-02-07T05:25:04.791Z,91.75
2023-02-07T05:27:33.043Z,92.00
2023-02-07T05:30:00.738Z,92.15
2023-02-07T05:32:50.166Z,91.74
2023-02-07T05:35:21.943Z,91.83
2023-02-07T05:37:52.085Z,91.92
2023-02-07T05:40:19.875Z,92.10
2023-02-07T05:42:47.568Z,92.39
2023-02-07T05:45:15.650Z,92.12
2023-02-07T05:47:43.530Z,92.29
2023-02-07T05:50:13.832Z,92.23
2023-02-07T05:52:42.385Z,92.20
2023-02-07T05:55:17.799Z,92.38
2023-02-07T05:57:46.326Z,92.35
2023-02-07T06:00:17.173Z,92.53
2023-02-07T06:02:45.271Z,92.26
2023-02-07T06:05:21.237Z,92.27
2023-02-07T06:07:51.380Z,92.31
2023-02-07T06:10:20.532Z,92.39
2023-02-07T06:12:49.295Z,92.24
2023-02-07T06:15:17.315Z,92.35
2023-02-07T06:17:45.398Z,92.28
2023-02-07T06:20:14.769Z,92.29
2023-02-07T06:22:42.554Z,92.54
2023-02-07T06:25:11.921Z,92.41
2023-02-07T06:27:41.525Z,92.57
2023-02-07T06:30:13.315Z,92.42
2023-02-07T06:32:41.533Z,92.50
2023-02-07T06:35:09.887Z,92.08
2023-02-07T06:37:43.022Z,92.09
2023-02-07T06:40:13.651Z,92.14
2023-02-07T06:42:41.423Z,91.78
2023-02-07T06:45:09.693Z,91.83
2023-02-07T06:47:37.629Z,91.57
2023-02-07T06:50:09.255Z,91.61
2023-02-07T06:52:37.582Z,91.69
2023-02-07T06:55:07.502Z,91.18
2023-02-07T06:57:35.548Z,91.19
2023-02-07T07:00:06.053Z,91.03
2023-02-07T07:02:34.993Z,91.09
2023-02-07T07:05:03.803Z,90.17
2023-02-07T07:07:32.220Z,90.72
2023-02-07T07:10:00.732Z,90.16
2023-02-07T07:12:31.096Z,89.54
2023-02-07T07:15:01.241Z,87.80
2023-02-07T07:17:29.037Z,85.02
2023-02-07T07:19:59.169Z,82.79
2023-02-07T07:22:27.674Z,81.57
2023-02-07T07:24:55.892Z,80.03
2023-02-07T07:27:26.084Z,79.30
2023-02-07T07:29:57.118Z,78.61
2023-02-07T07:32:34.083Z,78.43
2023-02-07T07:35:02.979Z,75.04
2023-02-07T07:37:30.927Z,76.81
2023-02-07T07:40:02.580Z,76.14
2023-02-07T07:42:30.357Z,75.67
2023-02-07T07:44:58.226Z,73.37
2023-02-07T07:47:28.935Z,73.75
2023-02-07T07:50:05.731Z,72.37
2023-02-07T07:52:38.552Z,69.44
2023-02-07T07:55:06.850Z,62.04
2023-02-07T07:57:36.821Z,64.51
2023-02-07T08:00:06.796Z,62.59
2023-02-07T08:02:34.835Z,60.09
2023-02-07T08:05:02.803Z,57.89
2023-02-07T08:07:33.151Z,53.81
2023-02-07T08:10:00.783Z,55.62
2023-02-07T08:12:28.910Z,52.65
2023-02-07T08:15:00.590Z,49.97
2023-02-07T08:17:33.197Z,49.71
2023-02-07T08:20:06.690Z,51.42
2023-02-07T08:22:34.453Z,49.78
2023-02-07T08:25:12.245Z,49.07
2023-02-07T08:27:40.347Z,47.74
2023-02-07T08:30:13.710Z,45.69
2023-02-07T08:32:43.406Z,48.12
2023-02-07T08:35:11.981Z,45.40
2023-02-07T08:37:39.969Z,46.44
2023-02-07T08:40:11.330Z,44.38
2023-02-07T08:42:39.292Z,43.15
2023-02-07T08:45:11.229Z,45.05
2023-02-07T08:47:39.474Z,42.47
2023-02-07T08:53:05.559Z,44.57
2023-02-07T08:55:38.159Z,41.09
2023-02-07T08:58:14.508Z,43.41
2023-02-07T09:00:43.871Z,42.55
2023-02-07T09:03:17.901Z,42.17
2023-02-07T09:06:03.347Z,41.56
2023-02-07T09:11:26.455Z,41.67
2023-02-07T09:13:54.562Z,40.53
2023-02-07T09:16:23.404Z,41.09
2023-02-07T09:18:52.596Z,40.73
2023-02-07T09:21:25.238Z,39.52
2023-02-07T09:23:54.889Z,42.18
2023-02-07T09:26:35.860Z,40.76
2023-02-07T09:29:20.535Z,39.70
2023-02-07T09:31:48.739Z,39.70
2023-02-07T09:34:20.774Z,40.09
2023-02-07T09:36:50.272Z,39.83
2023-02-07T09:39:21.188Z,41.31
2023-02-07T09:42:11.228Z,39.64
2023-02-07T09:45:18.833Z,39.10
2023-02-07T09:48:01.126Z,38.87
2023-02-07T09:50:34.112Z,39.66
2023-02-07T09:53:18.223Z,39.86
2023-02-07T10:48:19.637Z,35.58
2023-02-07T11:02:36.251Z,36.16
2023-02-07T14:06:57.499Z,44.61
2023-02-07T14:12:43.035Z,44.31
2023-02-07T14:15:42.862Z,43.50
2023-02-07T14:18:41.011Z,44.42
2023-02-07T14:21:46.123Z,44.65
2023-02-07T14:24:14.176Z,44.49
2023-02-07T14:26:43.081Z,44.19
2023-02-07T14:29:24.175Z,44.96
2023-02-07T14:31:56.520Z,44.98
2023-02-07T14:34:29.958Z,44.87
2023-02-07T14:37:00.506Z,44.99
2023-02-07T14:39:35.745Z,45.43
2023-02-07T14:45:07.867Z,46.11
2023-02-07T14:47:37.384Z,45.97
2023-02-07T14:50:14.572Z,47.07
2023-02-07T14:52:57.945Z,46.51
2023-02-07T14:56:09.911Z,46.34
2023-02-07T14:58:55.106Z,46.43
2023-02-07T15:01:41.777Z,47.01
2023-02-07T15:04:18.490Z,46.12
2023-02-07T15:06:48.192Z,46.36
2023-02-07T15:09:44.620Z,46.37
2023-02-07T15:12:40.875Z,47.15
2023-02-07T15:15:10.090Z,48.08
2023-02-07T15:17:47.495Z,48.91
2023-02-07T15:20:34.099Z,49.49
2023-02-07T15:23:14.858Z,49.04
2023-02-07T15:25:46.210Z,48.78
2023-02-07T15:28:40.040Z,49.10
2023-02-07T15:31:17.554Z,48.82
2023-02-07T15:33:50.656Z,49.86
2023-02-07T15:36:45.533Z,51.06
2023-02-07T15:39:18.808Z,51.93
2023-02-07T15:41:53.162Z,52.91
2023-02-07T15:47:43.318Z,54.29
2023-02-07T15:50:38.756Z,56.03
2023-02-07T15:53:18.121Z,57.82
2023-02-07T15:56:00.783Z,57.98
2023-02-07T15:58:46.826Z,58.56
2023-02-07T16:01:35.293Z,59.98
2023-02-07T16:04:04.920Z,61.01
2023-02-07T16:06:35.840Z,59.85
2023-02-07T16:09:57.786Z,60.42
2023-02-07T16:13:02.648Z,61.10
2023-02-07T16:15:38.884Z,62.72
2023-02-07T16:18:07.793Z,63.59
2023-02-07T16:20:37.992Z,65.03
2023-02-07T16:23:09.794Z,64.33
2023-02-07T16:25:38.141Z,64.66
2023-02-07T16:28:12.688Z,64.35
2023-02-07T16:30:43.754Z,65.45
2023-02-07T16:33:14.207Z,66.05
2023-02-07T16:35:41.923Z,67.54
2023-02-07T16:38:10.223Z,68.09
2023-02-07T16:40:38.804Z,67.59
2023-02-07T16:43:07.929Z,67.95
2023-02-07T16:45:40.099Z,68.16
2023-02-07T16:48:15.877Z,69.02
2023-02-07T16:50:43.640Z,69.31
2023-02-07T16:53:13.364Z,69.21
2023-02-07T16:55:42.061Z,69.42
2023-02-07T16:58:22.168Z,70.01
2023-02-07T17:00:50.022Z,69.77
2023-02-07T17:03:17.719Z,69.80
2023-02-07T17:05:51.023Z,70.21
2023-02-07T17:08:30.271Z,71.06
2023-02-07T17:11:05.603Z,70.38
2023-02-07T17:13:33.464Z,69.29
2023-02-07T17:16:01.108Z,69.85
2023-02-07T17:18:29.238Z,69.92
2023-02-07T17:20:57.017Z,68.79
2023-02-07T17:23:25.333Z,68.92
2023-02-07T17:25:53.305Z,69.39
2023-02-07T17:28:23.600Z,69.03
2023-02-07T17:30:53.309Z,69.40
2023-02-07T17:33:21.073Z,69.00
2023-02-07T17:35:51.248Z,68.75
2023-02-07T17:38:23.364Z,69.55
2023-02-07T17:40:51.459Z,69.72
2023-02-07T17:43:19.102Z,70.21
2023-02-07T17:45:46.787Z,70.48
2023-02-07T17:48:14.884Z,70.65
2023-02-07T17:50:43.114Z,70.90
2023-02-07T17:53:12.785Z,70.77
2023-02-07T17:55:40.841Z,70.25
2023-02-07T17:58:09.548Z,70.08
2023-02-07T18:00:40.295Z,70.47
2023-02-07T18:03:08.711Z,70.81
2023-02-07T18:05:39.219Z,71.05
2023-02-07T18:08:06.933Z,71.12
2023-02-07T18:10:37.631Z,71.34
2023-02-07T18:13:08.623Z,71.60
2023-02-07T18:15:36.994Z,71.86
2023-02-07T18:18:09.471Z,72.52
2023-02-07T18:20:39.336Z,72.38
2023-02-07T18:23:07.612Z,72.04
2023-02-07T18:25:35.734Z,72.82
2023-02-07T18:28:05.658Z,72.97
2023-02-07T18:30:34.667Z,73.06
2023-02-07T18:33:03.927Z,73.18
2023-02-07T18:35:31.907Z,73.72
2023-02-07T18:38:00.131Z,73.84
2023-02-07T18:40:28.705Z,74.11
2023-02-07T18:42:58.490Z,74.49
2023-02-07T18:45:26.480Z,74.67
2023-02-07T18:47:56.692Z,74.90
2023-02-07T18:50:25.436Z,75.06
2023-02-07T18:52:53.362Z,75.23
2023-02-07T18:55:23.600Z,75.39
2023-02-07T18:57:56.528Z,74.99
2023-02-07T19:00:25.150Z,75.04
2023-02-07T19:02:53.103Z,75.60
2023-02-07T19:05:24.588Z,75.68
2023-02-07T19:07:52.506Z,76.34
2023-02-07T19:10:22.899Z,76.12
2023-02-07T19:12:51.786Z,76.15
2023-02-07T19:15:22.049Z,76.54
2023-02-07T19:17:52.226Z,77.38
2023-02-07T19:20:20.283Z,77.08
2023-02-07T19:22:52.714Z,77.33
2023-02-07T19:25:21.323Z,77.08
2023-02-07T19:27:49.572Z,77.50
2023-02-07T19:30:17.299Z,76.97
2023-02-07T19:32:45.033Z,77.71
2023-02-07T19:35:12.891Z,78.63
2023-02-07T19:37:41.797Z,78.61
2023-02-07T19:40:12.868Z,78.78
2023-02-07T19:42:40.560Z,79.07
2023-02-07T19:45:08.515Z,78.99
2023-02-07T19:47:38.776Z,78.73
2023-02-07T19:50:07.600Z,79.09
2023-02-07T19:52:35.605Z,78.74
2023-02-07T19:55:04.407Z,79.86
2023-02-07T19:57:33.423Z,79.61
2023-02-07T20:00:01.313Z,79.69
2023-02-07T20:02:29.413Z,80.01
2023-02-07T20:04:57.281Z,80.22
2023-02-07T20:07:26.540Z,80.44
2023-02-07T20:09:54.146Z,81.15
2023-02-07T20:12:21.789Z,81.07
2023-02-07T20:14:49.829Z,81.32
2023-02-07T20:17:17.571Z,81.16
2023-02-07T20:19:45.402Z,81.06
2023-02-07T20:22:13.628Z,81.80
2023-02-07T20:24:41.209Z,81.64
2023-02-07T20:27:09.821Z,81.95
2023-02-07T20:29:37.532Z,81.74
2023-02-07T20:32:07.529Z,82.02
2023-02-07T20:34:40.709Z,82.10
2023-02-07T20:37:14.577Z,82.43
2023-02-07T20:39:42.319Z,82.88
2023-02-07T20:42:12.788Z,82.44
2023-02-07T20:44:40.528Z,82.95
2023-02-07T20:47:09.573Z,83.17
2023-02-07T20:49:37.476Z,83.22
2023-02-07T20:52:05.561Z,83.58
2023-02-07T20:54:33.593Z,84.11
2023-02-07T20:57:03.925Z,84.10
2023-02-07T20:59:33.827Z,84.26
2023-02-07T21:02:02.161Z,83.94
2023-02-07T21:04:33.358Z,84.19
2023-02-07T21:07:01.640Z,84.19
2023-02-07T21:09:31.144Z,84.10
2023-02-07T21:12:01.526Z,84.28
2023-02-07T21:14:33.138Z,84.37
2023-02-07T21:17:06.793Z,84.75
2023-02-07T21:19:36.377Z,84.91
2023-02-07T21:22:11.333Z,84.63
2023-02-07T21:24:43.904Z,84.05
2023-02-07T21:27:11.737Z,84.45
2023-02-07T21:29:41.052Z,84.82
2023-02-07T21:32:16.208Z,84.40
2023-02-07T21:34:48.784Z,84.69
2023-02-07T21:37:16.478Z,85.09
2023-02-07T21:39:44.516Z,85.29
2023-02-07T21:42:12.319Z,84.57
2023-02-07T21:44:39.979Z,85.05
2023-02-07T21:47:07.760Z,85.38
2023-02-07T21:49:35.525Z,84.98
2023-02-07T21:52:03.196Z,85.42
2023-02-07T21:54:33.193Z,85.53
2023-02-07T21:57:03.201Z,85.51
2023-02-07T21:59:32.092Z,85.51
2023-02-07T22:02:00.450Z,85.70
2023-02-07T22:04:30.415Z,85.74
2023-02-07T22:07:00.458Z,86.01
2023-02-07T22:09:28.081Z,86.08
2023-02-07T22:12:03.436Z,85.96
2023-02-07T22:14:31.193Z,85.83
2023-02-07T22:17:01.188Z,85.77
2023-02-07T22:19:31.085Z,85.76
2023-02-07T22:21:59.014Z,85.67
2023-02-07T22:24:28.774Z,85.92
2023-02-07T22:26:56.681Z,85.95
2023-02-07T22:29:26.343Z,85.74
2023-02-07T22:31:54.120Z,85.88
2023-02-07T22:34:21.804Z,85.82
2023-02-07T22:36:49.718Z,85.27
2023-02-07T22:39:19.005Z,85.14
2023-02-07T22:41:47.427Z,85.50
2023-02-07T22:44:15.477Z,85.37
2023-02-07T22:46:44.264Z,85.36
2023-02-07T22:49:11.945Z,85.17
2023-02-07T22:51:39.805Z,85.12
2023-02-07T22:54:13.594Z,85.72
2023-02-07T22:56:41.315Z,85.27
2023-02-07T22:59:09.293Z,85.28
2023-02-07T23:01:41.165Z,85.47
2023-02-07T23:04:13.910Z,85.42
2023-02-07T23:06:41.783Z,85.14
2023-02-07T23:09:09.788Z,85.37
2023-02-07T23:11:38.363Z,85.00
2023-02-07T23:14:08.582Z,85.17
2023-02-07T23:16:37.237Z,84.92
2023-02-07T23:19:10.639Z,85.13
2023-02-07T23:21:38.364Z,85.24
2023-02-07T23:24:10.627Z,85.05
2023-02-07T23:26:39.225Z,84.84
2023-02-07T23:29:07.082Z,84.25
2023-02-07T23:31:35.335Z,84.48
2023-02-07T23:34:05.534Z,84.83
2023-02-07T23:36:33.328Z,84.30
2023-02-07T23:39:05.111Z,85.11
2023-02-07T23:41:33.540Z,85.08
2023-02-07T23:44:02.625Z,85.19
2023-02-07T23:46:30.814Z,85.08
2023-02-07T23:48:58.706Z,85.01
2023-02-07T23:51:29.915Z,84.36
2023-02-07T23:53:57.785Z,84.35
2023-02-07T23:56:25.814Z,84.81
2023-02-07T23:58:54.190Z,84.76
